Ana Sayfa
METAR-TAF:

METAR-TAF

Havaalanları :

Port Macquarie, Avustralya

Enlem: 31-26-09S, Boylam: 152-51-48E, yükseklik: 5 m

Güncel hava durumu gözlemi

Rapor saat 21:28 UTC de 21 saat ve 59 dakika önce yapıldı.
Sakin rüzgar
Sıcaklık 9°C
Nem 93%
Basınç 1019 hPa
Görüş mesafesi: 7000 m

METAR: YPMQ 182128Z AUTO 00000KT 7000 // NCD 09/08 Q1019

Saat: 05:27 (19:27 UTC)


TAF: eksik

4.000'den fazla havaalanı için hava durumu gözlemleri ve tahminleri (METAR ve TAF raporları).

Kullanılabilir istasyonlar harita üzerinde sarı ve kırmızı noktalarla gösterilir.

İstasyonun adını görmek için fareyi noktanın üzerinde gezdirin.

Sonrasında hava gözlem ve tahminlerini görmek için tıklayın.

Haritayı değiştirmek için: yaklaştırmak için siyah artı işaretli yeşil düğmeye ve uzaklaştırmak için de eksi işaretli düğmeye hızla tıklayın; bitişik haritalar için yeşil okları kullanın.


METAR-TAF: